Time;durP1;ratioP1;P1;durP2;ratioP2;P2;SDS_P1;SDS_P2;PMS_P1;PMS_P2;Temp;Humidity;BMP_temperature;BMP_pressure;BME280_temperature;BME280_humidity;BME280_pressure;Samples;Min_cycle;Max_cycle;Signal;HPM_P1;HPM_P2
2023/01/25 00:01:25;;;;;;;146.60;37.90;;;0.80;67.50;;;;;;5013828;28;20033;-65
2023/01/25 00:03:51;;;;;;;86.57;37.47;;;0.80;67.50;;;;;;5018986;28;20314;-66
2023/01/25 00:06:16;;;;;;;195.98;40.67;;;0.80;67.70;;;;;;5017289;28;20032;-65
2023/01/25 00:08:42;;;;;;;79.63;34.63;;;0.70;67.70;;;;;;5016400;28;20037;-66
2023/01/25 00:11:10;;;;;;;86.28;37.72;;;0.70;67.70;;;;;;5018606;28;20108;-66
2023/01/25 00:13:35;;;;;;;127.15;35.60;;;0.70;67.60;;;;;;5017552;28;20501;-66
2023/01/25 00:16:04;;;;;;;83.38;36.63;;;0.80;67.60;;;;;;5018693;28;20030;-66
2023/01/25 00:18:30;;;;;;;94.22;37.40;;;0.70;67.50;;;;;;5017546;28;20034;-66
2023/01/25 00:20:56;;;;;;;141.85;39.25;;;0.80;67.30;;;;;;5018512;28;20494;-65
2023/01/25 00:23:21;;;;;;;254.20;46.47;;;0.80;67.70;;;;;;5015674;28;20085;-65
2023/01/25 00:25:47;;;;;;;350.30;46.92;;;0.80;67.60;;;;;;5018460;28;20101;-66
2023/01/25 00:28:12;;;;;;;256.05;39.53;;;0.70;67.80;;;;;;5017610;28;20320;-66
2023/01/25 00:30:38;;;;;;;79.25;35.30;;;0.70;67.70;;;;;;5000471;28;20149;-66
2023/01/25 00:33:15;;;;;;;60.63;31.55;;;0.80;67.40;;;;;;5017706;28;20034;-66
2023/01/25 00:35:43;;;;;;;79.32;35.83;;;0.80;67.70;;;;;;5017619;28;20022;-65
2023/01/25 00:38:27;;;;;;;86.13;37.47;;;0.70;68.10;;;;;;5011151;28;20065;-68
2023/01/25 00:40:52;;;;;;;110.82;38.60;;;0.70;68.00;;;;;;5007462;28;20037;-65
2023/01/25 00:43:18;;;;;;;81.75;36.55;;;0.70;67.80;;;;;;5016052;28;20030;-66
2023/01/25 00:45:44;;;;;;;164.30;39.70;;;0.70;67.90;;;;;;5015638;28;20377;-66
2023/01/25 00:48:10;;;;;;;174.32;38.88;;;0.70;67.60;;;;;;5013561;28;20113;-66
2023/01/25 00:50:38;;;;;;;445.60;50.55;;;0.70;67.80;;;;;;5015429;28;20030;-66
2023/01/25 00:53:04;;;;;;;112.97;39.25;;;0.70;68.00;;;;;;5013703;28;20080;-65
2023/01/25 00:55:29;;;;;;;87.00;36.65;;;0.70;67.80;;;;;;5019186;28;20369;-66
2023/01/25 00:57:55;;;;;;;153.80;37.38;;;0.70;67.60;;;;;;5015877;28;20036;-66
2023/01/25 01:00:20;;;;;;;47.15;26.05;;;0.70;67.60;;;;;;5016985;28;20083;-67
2023/01/25 01:02:49;;;;;;;57.13;30.17;;;0.70;68.10;;;;;;5018459;28;20030;-66
2023/01/25 01:05:14;;;;;;;66.13;32.63;;;0.70;68.00;;;;;;5003179;28;20088;-66
2023/01/25 01:07:40;;;;;;;83.68;35.85;;;0.70;68.10;;;;;;5015260;28;20323;-67
2023/01/25 01:10:06;;;;;;;50.60;26.05;;;0.70;68.10;;;;;;5015412;28;20029;-67
2023/01/25 01:12:35;;;;;;;40.35;20.77;;;0.70;67.90;;;;;;5016117;28;20045;-67
2023/01/25 01:15:01;;;;;;;34.47;19.05;;;0.70;68.30;;;;;;5013967;28;20029;-67
2023/01/25 01:17:26;;;;;;;32.22;18.60;;;0.70;68.60;;;;;;4999466;28;20034;-67
2023/01/25 01:19:52;;;;;;;33.90;19.75;;;0.80;68.60;;;;;;5015446;28;20029;-67
2023/01/25 01:22:17;;;;;;;35.72;19.55;;;0.80;68.70;;;;;;5014788;28;20026;-67
2023/01/25 01:24:43;;;;;;;35.88;21.33;;;0.80;69.50;;;;;;5015333;28;20093;-66
2023/01/25 01:27:08;;;;;;;58.92;29.48;;;0.80;70.30;;;;;;5018060;28;20026;-66
2023/01/25 01:29:34;;;;;;;54.20;29.45;;;0.80;70.10;;;;;;5020849;28;20037;-66
2023/01/25 01:31:59;;;;;;;57.78;30.65;;;0.80;70.30;;;;;;5015781;28;20034;-66
2023/01/25 01:34:25;;;;;;;44.00;24.27;;;0.80;70.70;;;;;;5014713;28;20024;-68
2023/01/25 01:36:51;;;;;;;50.70;27.23;;;0.80;71.40;;;;;;5012821;28;20474;-68
2023/01/25 01:39:16;;;;;;;50.92;27.98;;;0.80;70.80;;;;;;4925027;28;20030;-68
2023/01/25 01:41:42;;;;;;;41.72;24.17;;;0.90;71.10;;;;;;5013735;28;20318;-67
2023/01/25 01:44:44;;;;;;;49.28;26.30;;;0.80;71.70;;;;;;5014995;28;20047;-67
2023/01/25 01:47:21;;;;;;;35.13;20.13;;;0.80;72.40;;;;;;5011470;28;20346;-67
2023/01/25 01:50:13;;;;;;;33.65;18.73;;;0.80;73.20;;;;;;5017207;28;20056;-65
2023/01/25 01:52:39;;;;;;;30.48;17.63;;;0.70;73.60;;;;;;5005096;28;20018;-67
2023/01/25 01:55:11;;;;;;;32.10;17.73;;;0.70;74.10;;;;;;5022944;28;20033;-67
2023/01/25 01:57:43;;;;;;;29.95;18.00;;;0.70;74.90;;;;;;5001719;28;20022;-67
2023/01/25 02:00:19;;;;;;;34.92;19.27;;;0.70;76.30;;;;;;5016119;28;20026;-67
2023/01/25 02:02:48;;;;;;;30.55;17.13;;;0.70;76.50;;;;;;5014981;28;20029;-67
2023/01/25 02:05:26;;;;;;;30.50;17.45;;;0.70;76.40;;;;;;5012896;28;20044;-66
2023/01/25 02:07:54;;;;;;;32.28;18.17;;;0.80;77.80;;;;;;5014323;28;20033;-66
2023/01/25 02:10:22;;;;;;;27.73;16.63;;;0.70;78.60;;;;;;5020602;28;20029;-67
2023/01/25 02:12:48;;;;;;;29.83;17.42;;;0.70;77.90;;;;;;5015412;28;20053;-67
2023/01/25 02:15:13;;;;;;;30.90;18.10;;;0.80;78.30;;;;;;5015665;28;20076;-67
2023/01/25 02:17:40;;;;;;;31.52;18.23;;;0.80;78.90;;;;;;5006304;28;20046;-67
2023/01/25 02:20:06;;;;;;;32.63;18.10;;;0.80;78.60;;;;;;5008235;28;20023;-67
2023/01/25 02:22:54;;;;;;;27.90;16.65;;;0.80;78.70;;;;;;5001899;28;20438;-66
2023/01/25 02:25:20;;;;;;;32.55;18.13;;;0.80;80.30;;;;;;5003904;28;20453;-66
2023/01/25 02:27:52;;;;;;;45.33;23.75;;;0.80;80.20;;;;;;5003570;28;20045;-67
2023/01/25 02:30:17;;;;;;;32.83;19.05;;;0.80;80.50;;;;;;5003207;28;20109;-66
2023/01/25 02:32:43;;;;;;;28.20;16.40;;;0.80;80.40;;;;;;5005046;28;20112;-67
2023/01/25 02:35:24;;;;;;;29.73;16.88;;;0.70;80.50;;;;;;4988202;28;20084;-66
2023/01/25 02:37:51;;;;;;;26.75;15.77;;;0.80;80.60;;;;;;5009722;28;20029;-67
2023/01/25 02:40:17;;;;;;;30.42;17.42;;;0.80;81.60;;;;;;5001384;28;20072;-66
2023/01/25 02:42:43;;;;;;;30.13;16.80;;;0.80;82.80;;;;;;5013174;28;20038;-67
2023/01/25 02:45:17;;;;;;;30.20;17.05;;;0.80;83.30;;;;;;5012805;28;20022;-67
2023/01/25 02:47:43;;;;;;;33.03;17.58;;;0.80;83.20;;;;;;5001155;28;20050;-66
2023/01/25 02:50:09;;;;;;;28.60;17.60;;;0.70;83.00;;;;;;5001302;28;20380;-68
2023/01/25 02:52:35;;;;;;;31.48;18.08;;;0.80;83.20;;;;;;4992942;28;20032;-66
2023/01/25 02:55:00;;;;;;;27.73;16.70;;;0.70;82.60;;;;;;5010640;28;20034;-67
2023/01/25 02:57:26;;;;;;;29.15;16.90;;;0.80;82.20;;;;;;5013005;28;20036;-67
2023/01/25 02:59:51;;;;;;;29.17;16.35;;;0.80;83.20;;;;;;5010899;28;20053;-65
2023/01/25 03:02:17;;;;;;;39.60;20.25;;;0.80;84.70;;;;;;5015098;28;20034;-67
2023/01/25 03:04:43;;;;;;;29.80;18.30;;;0.70;84.60;;;;;;5012374;28;20109;-67
2023/01/25 03:07:08;;;;;;;29.33;16.70;;;0.70;83.90;;;;;;4994238;28;20037;-67
2023/01/25 03:09:34;;;;;;;28.42;15.98;;;0.70;83.50;;;;;;5012161;28;20057;-67
2023/01/25 03:11:59;;;;;;;30.10;18.08;;;0.70;83.80;;;;;;5020494;28;20049;-67
2023/01/25 03:14:25;;;;;;;34.92;19.10;;;0.70;82.80;;;;;;5012138;28;20331;-67
2023/01/25 03:16:50;;;;;;;35.20;19.70;;;0.70;83.70;;;;;;5013030;28;20060;-65
2023/01/25 03:19:16;;;;;;;32.78;18.33;;;0.70;84.60;;;;;;5012508;28;20030;-66
2023/01/25 03:21:41;;;;;;;34.40;18.17;;;0.70;83.50;;;;;;5010293;28;20038;-66
2023/01/25 03:24:08;;;;;;;30.10;17.58;;;0.70;84.00;;;;;;5012899;28;20374;-66
2023/01/25 03:27:09;;;;;;;31.02;17.63;;;0.70;83.70;;;;;;5012381;28;20026;-66
2023/01/25 03:29:20;;;;;;;33.83;18.85;;;0.70;84.80;;;;;;5012410;28;20049;-67
2023/01/25 03:31:46;;;;;;;34.00;19.13;;;0.70;83.70;;;;;;5015370;28;20030;-66
2023/01/25 03:34:12;;;;;;;57.78;27.77;;;0.70;84.00;;;;;;5018030;28;20036;-66
2023/01/25 03:36:37;;;;;;;39.17;21.48;;;0.70;83.60;;;;;;5012354;28;20049;-67
2023/01/25 03:39:03;;;;;;;38.28;21.00;;;0.70;83.40;;;;;;5014989;28;20048;-67
2023/01/25 03:41:28;;;;;;;36.80;20.65;;;0.70;82.80;;;;;;5008236;28;20029;-67
2023/01/25 03:43:54;;;;;;;31.38;18.65;;;0.70;82.80;;;;;;5025425;28;20435;-67
2023/01/25 03:46:19;;;;;;;34.50;19.77;;;0.70;82.10;;;;;;5018235;28;20022;-67
2023/01/25 03:48:45;;;;;;;33.85;20.23;;;0.70;82.40;;;;;;5013926;28;20501;-67
2023/01/25 03:51:11;;;;;;;33.83;18.67;;;0.70;82.30;;;;;;5017941;28;20030;-66
2023/01/25 03:53:36;;;;;;;35.50;18.52;;;0.70;82.00;;;;;;5017531;28;20034;-68
2023/01/25 03:56:08;;;;;;;34.70;19.77;;;0.70;82.60;;;;;;5014938;28;20030;-67
2023/01/25 03:58:34;;;;;;;34.00;19.40;;;0.70;81.80;;;;;;5015982;28;20037;-66
2023/01/25 04:01:00;;;;;;;37.10;19.25;;;0.60;82.40;;;;;;5015949;28;20053;-67
2023/01/25 04:03:27;;;;;;;33.55;18.33;;;0.70;82.10;;;;;;5021208;28;20061;-67
2023/01/25 04:05:56;;;;;;;32.45;18.30;;;0.60;82.70;;;;;;5017066;28;20097;-67
2023/01/25 04:08:23;;;;;;;27.90;15.88;;;0.60;82.60;;;;;;5004032;28;20080;-66
2023/01/25 04:11:10;;;;;;;29.45;17.23;;;0.60;82.00;;;;;;5017075;28;20088;-67
2023/01/25 04:13:37;;;;;;;27.58;15.38;;;0.60;83.80;;;;;;5017965;28;20362;-67
2023/01/25 04:16:03;;;;;;;28.85;16.13;;;0.60;83.90;;;;;;5013290;28;20049;-67
2023/01/25 04:18:30;;;;;;;27.58;15.43;;;0.60;84.80;;;;;;5003695;28;20314;-67
2023/01/25 04:20:56;;;;;;;30.88;17.08;;;0.50;85.00;;;;;;5012598;28;20084;-66
2023/01/25 04:23:23;;;;;;;25.98;15.40;;;0.50;85.30;;;;;;5002618;28;20076;-66
2023/01/25 04:25:53;;;;;;;30.63;17.35;;;0.50;85.50;;;;;;5001512;28;20121;-66
2023/01/25 04:28:20;;;;;;;25.55;15.88;;;0.50;85.00;;;;;;4998034;28;20318;-66
2023/01/25 04:30:45;;;;;;;24.70;13.57;;;0.50;84.60;;;;;;5000456;28;20030;-65
2023/01/25 04:33:12;;;;;;;26.55;15.77;;;0.50;84.70;;;;;;5005728;28;20034;-67
2023/01/25 04:35:41;;;;;;;26.00;14.95;;;0.50;85.30;;;;;;5001892;28;20057;-67
2023/01/25 04:38:06;;;;;;;25.25;14.73;;;0.50;85.70;;;;;;5000486;28;20105;-67
2023/01/25 04:40:32;;;;;;;29.50;16.70;;;0.60;86.20;;;;;;4983977;28;20083;-68
2023/01/25 04:42:57;;;;;;;26.77;15.15;;;0.60;86.70;;;;;;5003167;28;20030;-68
2023/01/25 04:45:24;;;;;;;26.27;15.27;;;0.60;87.40;;;;;;4994551;28;20022;-67
2023/01/25 04:47:58;;;;;;;25.70;14.65;;;0.50;86.90;;;;;;5013680;28;20025;-68
2023/01/25 04:50:24;;;;;;;26.73;16.05;;;0.50;87.10;;;;;;4990637;28;20423;-67
2023/01/25 04:52:49;;;;;;;22.80;13.95;;;0.50;88.00;;;;;;4989391;28;20033;-67
2023/01/25 04:55:18;;;;;;;24.20;14.98;;;0.50;87.10;;;;;;5016266;28;20100;-67
2023/01/25 04:57:44;;;;;;;28.52;15.65;;;0.50;88.20;;;;;;5015484;28;20038;-67
2023/01/25 05:00:10;;;;;;;23.98;14.55;;;0.50;87.60;;;;;;5016135;28;20044;-67
2023/01/25 05:02:36;;;;;;;27.30;15.27;;;0.50;87.90;;;;;;5000271;28;20033;-67
2023/01/25 05:05:02;;;;;;;24.20;14.75;;;0.40;87.70;;;;;;5000031;28;20431;-67
2023/01/25 05:07:28;;;;;;;25.38;14.63;;;0.40;87.90;;;;;;5015441;28;20068;-67
2023/01/25 05:09:53;;;;;;;27.92;15.20;;;0.40;87.80;;;;;;4984235;28;20052;-68
2023/01/25 05:12:19;;;;;;;26.83;15.38;;;0.40;88.60;;;;;;4998109;28;20061;-67
2023/01/25 05:14:45;;;;;;;26.48;15.45;;;0.40;88.20;;;;;;5016284;28;20038;-67
2023/01/25 05:17:10;;;;;;;27.33;15.95;;;0.40;88.10;;;;;;5015660;28;20038;-67
2023/01/25 05:19:36;;;;;;;24.73;13.45;;;0.30;87.80;;;;;;5013271;28;20029;-67
2023/01/25 05:22:06;;;;;;;26.17;14.27;;;0.40;86.90;;;;;;5010866;28;20536;-67
2023/01/25 05:24:33;;;;;;;28.00;16.17;;;0.30;87.00;;;;;;5014998;28;20022;-66
2023/01/25 05:27:00;;;;;;;30.05;16.75;;;0.40;87.50;;;;;;5014601;28;20358;-67
2023/01/25 05:29:35;;;;;;;31.27;17.67;;;0.40;87.70;;;;;;5014143;28;20416;-67
2023/01/25 05:32:02;;;;;;;34.13;17.90;;;0.40;87.10;;;;;;5009645;28;20072;-67
2023/01/25 05:34:27;;;;;;;28.58;16.05;;;0.40;87.30;;;;;;4996974;28;20434;-68
2023/01/25 05:36:53;;;;;;;25.20;14.40;;;0.30;86.70;;;;;;5012653;28;20137;-68
2023/01/25 05:39:19;;;;;;;30.35;16.00;;;0.40;85.80;;;;;;5012034;28;20038;-67
2023/01/25 05:41:44;;;;;;;25.13;14.63;;;0.40;86.90;;;;;;5013833;28;20106;-68
2023/01/25 05:44:10;;;;;;;22.48;13.93;;;0.40;86.30;;;;;;5014819;28;20033;-67
2023/01/25 05:46:35;;;;;;;25.88;15.10;;;0.50;86.30;;;;;;5014751;28;20025;-67
2023/01/25 05:49:01;;;;;;;27.65;15.60;;;0.50;86.70;;;;;;5013930;28;20026;-68
2023/01/25 05:51:26;;;;;;;31.35;17.55;;;0.50;88.40;;;;;;5014208;28;20034;-68
2023/01/25 05:53:55;;;;;;;27.42;15.00;;;0.50;88.00;;;;;;5012999;28;20041;-68
2023/01/25 05:56:21;;;;;;;23.83;14.18;;;0.50;87.40;;;;;;5016130;28;20084;-67
2023/01/25 05:58:51;;;;;;;29.70;16.42;;;0.60;88.20;;;;;;5013733;28;20036;-68
2023/01/25 06:01:16;;;;;;;25.52;15.05;;;0.50;89.10;;;;;;5014214;28;20077;-67
2023/01/25 06:03:42;;;;;;;29.10;16.92;;;0.60;89.20;;;;;;5012033;28;21773;-67
2023/01/25 06:06:07;;;;;;;28.67;16.35;;;0.50;90.20;;;;;;5011609;28;20025;-67
2023/01/25 06:08:34;;;;;;;31.42;17.67;;;0.50;90.40;;;;;;5011607;28;20045;-67
2023/01/25 06:11:05;;;;;;;24.50;15.15;;;0.40;89.90;;;;;;5014904;28;20046;-67
2023/01/25 06:13:31;;;;;;;29.30;16.98;;;0.40;89.20;;;;;;4979820;28;20060;-67
2023/01/25 06:15:56;;;;;;;29.13;15.88;;;0.50;89.90;;;;;;5008525;28;20431;-68
2023/01/25 06:18:26;;;;;;;28.52;16.10;;;0.50;90.20;;;;;;5012712;28;20038;-67
2023/01/25 06:20:55;;;;;;;29.52;16.55;;;0.40;90.40;;;;;;5015497;28;20097;-67
2023/01/25 06:23:20;;;;;;;29.25;16.30;;;0.40;89.90;;;;;;4990646;28;20076;-67
2023/01/25 06:25:46;;;;;;;27.50;15.23;;;0.40;89.90;;;;;;5015505;28;20304;-67
2023/01/25 06:28:11;;;;;;;27.15;15.15;;;0.40;90.00;;;;;;5015167;28;20469;-67
2023/01/25 06:30:37;;;;;;;27.98;15.38;;;0.50;90.00;;;;;;5012967;28;20032;-66
2023/01/25 06:33:02;;;;;;;28.02;17.20;;;0.50;89.80;;;;;;5011486;28;20037;-67
2023/01/25 06:35:31;;;;;;;28.95;17.45;;;0.50;89.10;;;;;;5013244;28;20030;-67
2023/01/25 06:37:58;;;;;;;31.23;18.08;;;0.50;90.30;;;;;;5011475;28;20322;-67
2023/01/25 06:40:24;;;;;;;29.92;16.52;;;0.50;89.80;;;;;;5013031;28;20407;-67
2023/01/25 06:42:50;;;;;;;36.42;21.52;;;0.50;90.30;;;;;;5012271;28;20084;-67
2023/01/25 06:45:15;;;;;;;28.77;17.65;;;0.50;90.40;;;;;;5014021;28;20025;-67
2023/01/25 06:47:41;;;;;;;38.00;18.90;;;0.50;89.90;;;;;;5011052;28;20025;-67
2023/01/25 06:50:08;;;;;;;29.10;15.90;;;0.50;89.90;;;;;;5014183;28;20038;-67
2023/01/25 06:52:35;;;;;;;53.53;22.92;;;0.40;89.80;;;;;;5011440;28;20026;-67
2023/01/25 06:55:06;;;;;;;48.85;23.60;;;0.50;89.00;;;;;;5013709;28;20177;-67
2023/01/25 06:57:33;;;;;;;40.00;20.23;;;0.50;90.20;;;;;;5011409;28;20327;-67
2023/01/25 06:59:59;;;;;;;33.47;18.60;;;0.50;89.90;;;;;;5015178;28;20040;-67
2023/01/25 07:02:25;;;;;;;31.85;17.92;;;0.50;89.60;;;;;;5012187;28;20018;-67
2023/01/25 07:04:50;;;;;;;40.95;20.75;;;0.60;88.20;;;;;;5010546;28;20022;-67
2023/01/25 07:07:16;;;;;;;29.75;15.63;;;0.60;90.00;;;;;;5012723;28;20112;-67
2023/01/25 07:09:41;;;;;;;58.58;30.30;;;0.60;89.70;;;;;;5012666;28;20026;-67
2023/01/25 07:12:07;;;;;;;46.47;22.80;;;0.50;90.40;;;;;;5017225;28;20045;-66
2023/01/25 07:14:33;;;;;;;33.35;19.33;;;0.50;91.00;;;;;;5017502;28;20025;-67
2023/01/25 07:16:58;;;;;;;33.40;17.17;;;0.40;89.80;;;;;;5019872;28;20088;-67
2023/01/25 07:19:24;;;;;;;31.13;18.17;;;0.40;89.90;;;;;;5020123;28;20026;-67
2023/01/25 07:21:50;;;;;;;30.02;17.52;;;0.50;88.80;;;;;;5018593;28;20120;-67
2023/01/25 07:24:18;;;;;;;31.45;18.10;;;0.50;89.60;;;;;;5019868;28;20097;-69
2023/01/25 07:26:44;;;;;;;27.48;15.93;;;0.60;89.00;;;;;;5019963;28;20330;-69
2023/01/25 07:29:15;;;;;;;28.13;16.88;;;0.60;88.30;;;;;;5018705;28;20096;-68
2023/01/25 07:31:41;;;;;;;26.50;15.88;;;0.70;89.80;;;;;;5012349;28;20022;-68
2023/01/25 07:34:09;;;;;;;26.45;15.30;;;0.70;90.80;;;;;;5015153;28;20030;-68
2023/01/25 07:36:38;;;;;;;27.58;15.57;;;0.70;90.60;;;;;;5001065;28;20053;-68
2023/01/25 07:39:04;;;;;;;33.42;19.08;;;0.80;91.70;;;;;;4998825;28;20483;-67
2023/01/25 07:41:32;;;;;;;37.55;20.95;;;0.80;93.20;;;;;;5028682;28;20472;-68
2023/01/25 07:43:58;;;;;;;32.42;18.33;;;0.70;93.30;;;;;;5039226;28;20053;-67
2023/01/25 07:46:24;;;;;;;32.63;17.52;;;0.80;92.00;;;;;;5022389;28;20058;-67
2023/01/25 07:48:51;;;;;;;33.03;18.02;;;0.80;91.40;;;;;;5015198;28;20346;-68
2023/01/25 07:51:23;;;;;;;29.92;16.67;;;0.80;92.00;;;;;;5019504;28;20443;-68
2023/01/25 07:53:50;;;;;;;30.48;17.02;;;0.90;92.40;;;;;;5014812;28;20038;-68
2023/01/25 07:56:18;;;;;;;33.42;18.45;;;0.90;92.90;;;;;;5018775;28;20053;-68
2023/01/25 07:58:44;;;;;;;28.17;15.60;;;1.00;93.00;;;;;;5022353;28;20021;-68
2023/01/25 08:01:12;;;;;;;31.33;17.33;;;1.00;93.20;;;;;;5034215;28;20334;-68
2023/01/25 08:03:38;;;;;;;31.92;17.25;;;1.10;93.60;;;;;;5017026;28;20029;-68
2023/01/25 08:06:04;;;;;;;30.38;16.92;;;1.20;94.30;;;;;;5017376;28;20034;-67
2023/01/25 08:08:33;;;;;;;29.20;16.48;;;1.20;94.60;;;;;;5019232;28;20104;-67
2023/01/25 08:11:00;;;;;;;31.58;17.63;;;1.30;94.00;;;;;;5019977;28;20046;-68
2023/01/25 08:13:26;;;;;;;32.33;16.48;;;1.30;95.60;;;;;;5018091;28;20448;-67
2023/01/25 08:15:55;;;;;;;30.98;17.38;;;1.30;97.20;;;;;;5016223;28;20038;-67
2023/01/25 08:18:20;;;;;;;29.73;16.10;;;1.20;97.30;;;;;;5017789;28;20038;-67
2023/01/25 08:20:46;;;;;;;28.20;15.60;;;1.20;96.70;;;;;;5017168;28;20029;-67
2023/01/25 08:23:12;;;;;;;28.15;15.88;;;1.20;96.10;;;;;;5015505;28;20064;-67
2023/01/25 08:25:38;;;;;;;28.05;15.73;;;1.30;96.80;;;;;;5016835;28;20047;-67
2023/01/25 08:28:04;;;;;;;28.80;15.55;;;1.30;96.40;;;;;;5017717;28;20029;-66
2023/01/25 08:30:29;;;;;;;26.17;15.82;;;1.40;97.20;;;;;;5017807;28;20032;-67
2023/01/25 08:32:55;;;;;;;26.50;14.90;;;1.40;98.00;;;;;;5015983;28;20034;-67
2023/01/25 08:35:21;;;;;;;25.48;15.50;;;1.30;98.00;;;;;;5015135;28;20034;-67
2023/01/25 08:37:46;;;;;;;26.60;15.10;;;1.40;98.00;;;;;;5015290;28;20157;-67
2023/01/25 08:40:13;;;;;;;23.95;13.60;;;1.50;98.00;;;;;;5017785;28;20319;-67
2023/01/25 08:42:38;;;;;;;20.58;12.57;;;1.30;98.00;;;;;;5016053;28;20106;-67
2023/01/25 08:45:04;;;;;;;23.23;13.30;;;1.30;98.00;;;;;;5023552;28;20378;-67
2023/01/25 08:47:30;;;;;;;22.23;13.30;;;1.30;98.00;;;;;;5015039;28;20483;-68
2023/01/25 08:49:55;;;;;;;20.48;12.63;;;1.30;98.00;;;;;;4992702;28;20038;-67
2023/01/25 08:52:21;;;;;;;20.83;12.13;;;1.40;98.00;;;;;;4991512;28;20040;-68
2023/01/25 08:54:47;;;;;;;18.60;11.35;;;1.50;98.00;;;;;;4992131;28;20061;-67
2023/01/25 08:57:12;;;;;;;18.98;11.30;;;1.50;98.00;;;;;;4992279;28;20473;-67
2023/01/25 08:59:38;;;;;;;20.25;12.38;;;1.60;98.00;;;;;;5013790;28;20030;-67
2023/01/25 09:02:03;;;;;;;17.42;11.00;;;1.60;98.00;;;;;;5018078;28;20022;-67
2023/01/25 09:04:29;;;;;;;17.25;10.45;;;1.60;98.00;;;;;;5017994;28;20096;-67
2023/01/25 09:06:55;;;;;;;16.40;10.25;;;1.70;98.00;;;;;;5016790;28;20018;-67
2023/01/25 09:09:23;;;;;;;19.05;11.60;;;1.70;98.00;;;;;;5017859;28;20030;-67
2023/01/25 09:11:49;;;;;;;19.00;11.68;;;1.70;98.00;;;;;;5017830;28;20045;-67
2023/01/25 09:14:15;;;;;;;17.35;10.82;;;1.80;98.00;;;;;;5016994;28;20030;-67
2023/01/25 09:16:40;;;;;;;18.38;10.98;;;1.80;98.00;;;;;;5017867;28;20022;-67
2023/01/25 09:19:06;;;;;;;18.83;10.82;;;1.90;98.00;;;;;;5015251;28;20323;-68
2023/01/25 09:21:32;;;;;;;19.55;12.13;;;2.00;98.00;;;;;;5015803;28;20296;-67
2023/01/25 09:23:58;;;;;;;20.40;11.85;;;2.00;98.00;;;;;;5017569;28;20030;-67
2023/01/25 09:26:24;;;;;;;19.08;11.70;;;2.00;98.00;;;;;;5017646;28;20034;-68
2023/01/25 09:28:52;;;;;;;18.40;11.90;;;2.10;98.00;;;;;;4997382;28;20026;-67
2023/01/25 09:31:18;;;;;;;18.05;11.30;;;2.10;98.00;;;;;;5001842;28;20034;-67
2023/01/25 09:33:45;;;;;;;18.10;11.30;;;2.00;98.00;;;;;;4996380;28;20087;-67
2023/01/25 09:36:10;;;;;;;20.67;11.60;;;2.00;98.00;;;;;;5027425;28;20026;-68
2023/01/25 09:38:36;;;;;;;20.83;13.05;;;1.80;98.00;;;;;;5003537;28;20042;-67
2023/01/25 09:41:39;;;;;;;20.40;11.27;;;1.70;98.00;;;;;;5030777;28;20088;-67
2023/01/25 09:44:23;;;;;;;20.70;11.60;;;1.70;98.00;;;;;;5008853;28;20039;-67
2023/01/25 09:46:53;;;;;;;39.15;27.10;;;1.70;98.00;;;;;;5013395;28;20041;-67
2023/01/25 09:49:30;;;;;;;59.45;43.67;;;1.70;98.00;;;;;;5014565;28;20030;-68
2023/01/25 09:52:19;;;;;;;21.73;13.25;;;1.60;98.00;;;;;;5007946;28;20037;-67
2023/01/25 09:54:46;;;;;;;23.08;12.85;;;1.70;98.00;;;;;;5003709;28;20022;-68
2023/01/25 09:57:29;;;;;;;21.30;12.23;;;1.60;98.00;;;;;;5007670;28;20026;-67
2023/01/25 09:59:55;;;;;;;24.08;13.80;;;1.60;98.00;;;;;;5011720;28;20083;-68
2023/01/25 10:02:42;;;;;;;29.65;16.10;;;1.60;98.00;;;;;;5016149;28;20442;-67
2023/01/25 10:05:20;;;;;;;22.58;12.55;;;1.60;98.00;;;;;;5033746;28;20053;-68
2023/01/25 10:08:24;;;;;;;23.40;14.05;;;1.70;98.00;;;;;;5030141;28;20418;-67
2023/01/25 10:10:57;;;;;;;26.63;15.88;;;1.80;98.00;;;;;;4996775;28;20124;-66
2023/01/25 10:13:23;;;;;;;23.48;13.60;;;1.80;98.00;;;;;;5016778;28;20091;-66
2023/01/25 10:15:53;;;;;;;23.95;14.32;;;1.80;98.00;;;;;;4998909;28;20438;-66
2023/01/25 10:18:32;;;;;;;21.35;13.15;;;1.90;98.00;;;;;;5016621;28;20037;-67
2023/01/25 10:21:11;;;;;;;23.95;13.40;;;2.00;98.00;;;;;;5016609;28;20029;-68
2023/01/25 10:24:21;;;;;;;22.95;12.65;;;2.10;98.00;;;;;;5015585;28;20026;-68
2023/01/25 10:26:53;;;;;;;20.73;12.52;;;2.10;98.00;;;;;;5016602;28;20038;-68
2023/01/25 10:29:21;;;;;;;20.40;12.48;;;2.40;98.00;;;;;;5015703;28;20026;-67
2023/01/25 10:31:52;;;;;;;21.05;12.10;;;2.30;98.00;;;;;;5016518;28;20618;-67
2023/01/25 10:34:28;;;;;;;28.70;18.77;;;2.30;98.00;;;;;;5014896;28;20273;-67
2023/01/25 10:37:03;;;;;;;22.02;12.52;;;2.10;98.00;;;;;;5015140;28;20045;-67
2023/01/25 10:39:31;;;;;;;24.00;14.20;;;2.20;98.00;;;;;;5014655;28;20026;-67
2023/01/25 10:42:05;;;;;;;22.08;13.23;;;2.20;98.00;;;;;;5014082;28;20022;-68
2023/01/25 10:44:35;;;;;;;26.45;16.30;;;2.30;98.00;;;;;;5015060;28;20080;-67
2023/01/25 10:47:16;;;;;;;26.02;16.33;;;2.20;98.00;;;;;;4995712;28;20026;-68
2023/01/25 10:49:47;;;;;;;19.65;11.38;;;2.30;98.00;;;;;;5011625;28;20022;-67
2023/01/25 10:52:18;;;;;;;18.63;11.00;;;2.50;98.00;;;;;;5011188;28;20033;-67
2023/01/25 10:54:44;;;;;;;18.38;11.20;;;2.40;98.00;;;;;;5014481;28;20086;-68
2023/01/25 10:57:19;;;;;;;21.77;12.88;;;2.60;98.00;;;;;;5015248;28;20030;-67
2023/01/25 10:59:49;;;;;;;20.27;12.52;;;2.70;98.00;;;;;;5015338;28;20550;-67
2023/01/25 11:02:37;;;;;;;24.80;14.27;;;2.50;98.00;;;;;;5015118;28;20022;-68
2023/01/25 11:05:18;;;;;;;22.40;13.25;;;2.20;98.00;;;;;;5008977;28;20057;-67
2023/01/25 11:07:44;;;;;;;25.00;14.52;;;2.10;98.00;;;;;;5015199;28;20025;-67
2023/01/25 11:10:28;;;;;;;22.20;12.68;;;2.10;98.00;;;;;;5015777;28;20084;-67
2023/01/25 11:13:12;;;;;;;21.95;13.52;;;2.30;98.00;;;;;;5015918;28;20026;-67
2023/01/25 11:15:39;;;;;;;24.92;14.40;;;2.40;98.00;;;;;;5016054;28;20057;-68
2023/01/25 11:18:06;;;;;;;22.08;12.98;;;2.30;98.00;;;;;;5015952;28;20030;-68
2023/01/25 11:20:31;;;;;;;22.33;12.25;;;2.20;98.00;;;;;;5014782;28;20026;-68
2023/01/25 11:22:58;;;;;;;21.60;12.80;;;2.20;98.00;;;;;;5014806;28;20105;-68
2023/01/25 11:25:25;;;;;;;20.65;12.52;;;2.30;98.00;;;;;;5015938;28;20034;-68
2023/01/25 11:27:51;;;;;;;18.70;11.85;;;2.30;98.00;;;;;;5015943;28;20440;-68
2023/01/25 11:30:20;;;;;;;21.70;13.35;;;2.40;98.00;;;;;;5015983;28;20034;-68
2023/01/25 11:32:46;;;;;;;22.55;12.90;;;2.50;98.00;;;;;;5015790;28;20034;-67
2023/01/25 11:35:14;;;;;;;23.27;14.20;;;2.40;98.00;;;;;;5013540;28;20030;-67
2023/01/25 11:37:58;;;;;;;24.08;13.35;;;2.20;98.00;;;;;;5014605;28;20034;-67
2023/01/25 11:40:39;;;;;;;20.40;11.93;;;2.10;98.00;;;;;;4996912;28;20032;-67
2023/01/25 11:43:37;;;;;;;21.88;12.88;;;2.10;98.00;;;;;;5014902;28;20029;-67
2023/01/25 11:46:22;;;;;;;23.08;14.13;;;2.10;98.00;;;;;;4995606;28;20033;-68
2023/01/25 11:48:59;;;;;;;23.02;13.63;;;2.10;98.00;;;;;;5003541;28;20314;-67
2023/01/25 11:51:40;;;;;;;24.42;14.48;;;2.20;98.00;;;;;;5014092;28;20034;-67
2023/01/25 11:54:30;;;;;;;26.65;14.38;;;2.30;98.00;;;;;;5012559;28;20041;-67
2023/01/25 11:57:12;;;;;;;23.98;14.45;;;2.40;98.00;;;;;;5009393;28;20034;-67
2023/01/25 11:59:56;;;;;;;24.08;14.00;;;2.30;98.00;;;;;;5015404;28;20415;-67
2023/01/25 12:02:27;;;;;;;;;;;2.30;98.00;;;;;;5001789;28;20360;-67
2023/01/25 12:05:20;;;;;;;29.15;16.58;;;2.40;98.00;;;;;;5015561;28;20264;-67
2023/01/25 12:08:03;;;;;;;23.45;14.52;;;2.20;98.00;;;;;;5008544;28;20080;-68
2023/01/25 12:11:02;;;;;;;26.08;15.38;;;2.10;98.00;;;;;;5015424;28;20044;-67
2023/01/25 12:13:52;;;;;;;22.92;14.07;;;2.10;98.00;;;;;;4988085;28;20100;-68
2023/01/25 12:16:27;;;;;;;24.05;13.15;;;2.10;98.00;;;;;;5010326;28;20038;-68
2023/01/25 12:18:55;;;;;;;25.05;14.10;;;2.30;98.00;;;;;;5011994;28;20496;-68
2023/01/25 12:21:35;;;;;;;25.27;13.98;;;2.20;98.00;;;;;;5006425;28;20038;-67
2023/01/25 12:24:16;;;;;;;25.17;14.70;;;2.10;98.00;;;;;;5015098;28;20029;-67
2023/01/25 12:26:54;;;;;;;22.10;13.52;;;2.10;98.00;;;;;;5012232;28;20088;-67
2023/01/25 12:29:25;;;;;;;21.90;12.95;;;2.10;98.00;;;;;;5014756;28;20026;-67
2023/01/25 12:32:18;;;;;;;20.90;12.35;;;2.30;98.00;;;;;;5018704;28;20122;-67
2023/01/25 12:34:50;;;;;;;23.13;13.55;;;2.20;98.00;;;;;;5002679;28;20022;-68
2023/01/25 12:37:24;;;;;;;26.65;14.60;;;2.10;98.00;;;;;;5013951;28;20034;-67
2023/01/25 12:40:04;;;;;;;22.85;12.93;;;2.00;98.00;;;;;;5017328;28;20018;-68
2023/01/25 12:42:52;;;;;;;22.95;13.35;;;2.00;98.00;;;;;;5017703;28;20022;-68
2023/01/25 12:45:28;;;;;;;24.38;14.90;;;2.10;98.00;;;;;;5016746;28;20045;-68
2023/01/25 12:47:54;;;;;;;27.52;17.10;;;2.10;98.00;;;;;;5011677;28;20026;-67